createdAt,value
2018-02-03T00:01:05.518Z,76.60
2018-02-03T00:03:33.632Z,76.50
2018-02-03T00:06:01.733Z,76.60
2018-02-03T00:08:30.155Z,76.60
2018-02-03T00:10:58.257Z,76.60
2018-02-03T00:13:26.355Z,76.70
2018-02-03T00:15:54.440Z,76.70
2018-02-03T00:18:22.567Z,76.70
2018-02-03T00:20:50.731Z,76.70
2018-02-03T00:23:18.904Z,76.70
2018-02-03T00:25:47.009Z,76.70
2018-02-03T00:28:15.121Z,76.70
2018-02-03T00:30:44.005Z,76.70
2018-02-03T00:33:12.098Z,76.70
2018-02-03T00:35:40.253Z,76.80
2018-02-03T00:38:08.737Z,76.80
2018-02-03T00:40:37.579Z,76.90
2018-02-03T00:43:05.687Z,76.80
2018-02-03T00:45:34.543Z,77.70
2018-02-03T00:48:03.027Z,76.70
2018-02-03T00:50:31.112Z,76.80
2018-02-03T00:52:59.189Z,76.80
2018-02-03T00:55:27.320Z,76.80
2018-02-03T00:57:55.494Z,76.80
2018-02-03T01:00:23.600Z,76.80
2018-02-03T01:02:51.700Z,76.80
2018-02-03T01:05:19.808Z,76.80
2018-02-03T01:07:48.656Z,76.80
2018-02-03T01:10:16.822Z,76.60
2018-02-03T01:12:44.960Z,76.60
2018-02-03T01:15:13.876Z,76.70
2018-02-03T01:17:42.064Z,76.60
2018-02-03T01:20:10.152Z,76.70
2018-02-03T01:22:38.248Z,76.80
2018-02-03T01:25:06.358Z,76.80
2018-02-03T01:27:34.451Z,76.90
2018-02-03T01:30:02.605Z,77.00
2018-02-03T01:32:30.718Z,77.00
2018-02-03T01:34:58.808Z,76.90
2018-02-03T01:37:26.955Z,77.00
2018-02-03T01:39:55.881Z,77.00
2018-02-03T01:42:24.028Z,76.90
2018-02-03T01:44:52.115Z,76.90
2018-02-03T01:47:20.329Z,76.90
2018-02-03T01:49:48.415Z,77.00
2018-02-03T01:52:16.515Z,76.80
2018-02-03T01:54:44.583Z,77.00
2018-02-03T01:57:12.672Z,77.10
2018-02-03T01:59:40.749Z,77.10
2018-02-03T02:02:08.908Z,77.10
2018-02-03T02:04:37.099Z,77.10
2018-02-03T02:07:05.395Z,77.00
2018-02-03T02:09:33.711Z,77.10
2018-02-03T02:12:01.847Z,77.10
2018-02-03T02:14:30.064Z,77.00
2018-02-03T02:16:58.138Z,77.00
2018-02-03T02:19:26.238Z,76.90
2018-02-03T02:21:54.320Z,77.00
2018-02-03T02:24:22.470Z,77.00
2018-02-03T02:26:50.561Z,77.00
2018-02-03T02:29:18.672Z,77.00
2018-02-03T02:31:46.786Z,77.00
2018-02-03T02:34:14.890Z,77.00
2018-02-03T02:36:42.976Z,77.00
2018-02-03T02:39:11.071Z,77.00
2018-02-03T02:41:39.162Z,76.90
2018-02-03T02:44:07.256Z,76.90
2018-02-03T02:46:35.484Z,76.90
2018-02-03T02:49:03.613Z,76.80
2018-02-03T02:51:31.710Z,76.90
2018-02-03T02:53:59.834Z,77.00
2018-02-03T02:56:28.706Z,77.10
2018-02-03T02:58:56.820Z,77.10
2018-02-03T03:01:24.977Z,77.10
2018-02-03T03:03:53.053Z,77.10
2018-02-03T03:06:21.179Z,77.10
2018-02-03T03:08:49.279Z,77.10
2018-02-03T03:11:17.375Z,77.10
2018-02-03T03:13:45.453Z,77.10
2018-02-03T03:16:13.589Z,77.10
2018-02-03T03:18:41.670Z,77.10
2018-02-03T03:21:09.873Z,77.10
2018-02-03T03:23:38.097Z,77.10
2018-02-03T03:26:06.373Z,77.10
2018-02-03T03:28:34.501Z,77.10
2018-02-03T03:31:02.593Z,77.10
2018-02-03T03:33:30.712Z,77.10
2018-02-03T03:35:58.801Z,77.10
2018-02-03T03:38:26.893Z,77.20
2018-02-03T03:40:54.965Z,77.10
2018-02-03T03:43:23.174Z,77.10
2018-02-03T03:45:51.357Z,77.10
2018-02-03T03:48:19.592Z,77.20
2018-02-03T03:50:47.808Z,77.20
2018-02-03T03:53:16.082Z,77.20
2018-02-03T03:55:44.288Z,77.20
2018-02-03T03:58:13.193Z,77.30
2018-02-03T04:00:41.276Z,77.30
2018-02-03T04:03:09.374Z,77.30
2018-02-03T04:05:37.468Z,78.10
2018-02-03T04:08:05.650Z,77.20
2018-02-03T04:10:34.508Z,77.30
2018-02-03T04:13:02.592Z,77.30
2018-02-03T04:15:30.694Z,77.20
2018-02-03T04:17:58.772Z,77.30
2018-02-03T04:20:27.666Z,77.30
2018-02-03T04:22:55.848Z,77.30
2018-02-03T04:25:23.948Z,77.30
2018-02-03T04:27:52.030Z,77.30
2018-02-03T04:30:20.498Z,77.30
2018-02-03T04:32:48.605Z,77.20
2018-02-03T04:35:16.735Z,77.30
2018-02-03T04:37:44.833Z,77.20
2018-02-03T04:40:12.917Z,77.20
2018-02-03T04:42:41.015Z,77.20
2018-02-03T04:45:09.095Z,77.20
2018-02-03T04:47:37.195Z,77.20
2018-02-03T04:50:05.274Z,77.20
2018-02-03T04:52:33.377Z,77.30
2018-02-03T04:55:01.459Z,77.20
2018-02-03T04:57:29.589Z,77.30
2018-02-03T04:59:57.827Z,77.40
2018-02-03T05:02:26.715Z,77.50
2018-02-03T05:04:54.795Z,77.40
2018-02-03T05:07:22.887Z,77.40
2018-02-03T05:09:51.001Z,77.40
2018-02-03T05:12:19.086Z,77.30
2018-02-03T05:14:47.204Z,77.30
2018-02-03T05:17:15.421Z,77.30
2018-02-03T05:19:43.517Z,77.30
2018-02-03T05:22:11.686Z,77.40
2018-02-03T05:24:39.774Z,77.30
2018-02-03T05:27:07.897Z,77.30
2018-02-03T05:29:36.076Z,77.50
2018-02-03T05:32:04.186Z,77.50
2018-02-03T05:34:33.046Z,77.40
2018-02-03T05:37:01.122Z,77.30
2018-02-03T05:39:29.216Z,77.50
2018-02-03T05:41:57.332Z,77.50
2018-02-03T05:44:25.443Z,77.50
2018-02-03T05:46:53.633Z,77.50
2018-02-03T05:49:21.762Z,77.60
2018-02-03T05:51:49.972Z,77.50
2018-02-03T05:54:18.836Z,77.60
2018-02-03T05:56:46.944Z,77.50
2018-02-03T05:59:15.800Z,77.50
2018-02-03T06:01:43.901Z,77.50
2018-02-03T06:04:12.785Z,77.40
2018-02-03T06:06:40.873Z,77.40
2018-02-03T06:09:09.753Z,77.40
2018-02-03T06:11:37.883Z,77.40
2018-02-03T06:14:05.979Z,77.30
2018-02-03T06:16:34.059Z,77.30
2018-02-03T06:19:02.175Z,77.30
2018-02-03T06:21:30.271Z,77.40
2018-02-03T06:23:58.365Z,77.40
2018-02-03T06:26:26.569Z,77.40
2018-02-03T06:28:54.701Z,77.40
2018-02-03T06:31:22.879Z,77.50
2018-02-03T06:33:51.005Z,77.50
2018-02-03T06:36:19.098Z,77.50
2018-02-03T06:38:47.209Z,77.50
2018-02-03T06:41:15.295Z,77.50
2018-02-03T06:43:43.396Z,77.50
2018-02-03T06:46:11.489Z,77.40
2018-02-03T06:48:39.593Z,77.30
2018-02-03T06:51:07.822Z,77.40
2018-02-03T06:53:35.912Z,77.40
2018-02-03T06:56:04.002Z,77.30
2018-02-03T06:58:32.085Z,77.40
2018-02-03T07:01:00.180Z,77.40
2018-02-03T07:03:28.288Z,77.40
2018-02-03T07:05:56.474Z,77.20
2018-02-03T07:08:24.570Z,77.30
2018-02-03T07:10:52.950Z,77.30
2018-02-03T07:13:21.008Z,77.30
2018-02-03T07:15:49.116Z,77.40
2018-02-03T07:18:17.261Z,77.40
2018-02-03T07:20:45.589Z,77.40
2018-02-03T07:23:13.702Z,77.50
2018-02-03T07:25:41.780Z,77.50
2018-02-03T07:28:09.866Z,77.50
2018-02-03T07:30:38.514Z,77.60
2018-02-03T07:33:06.684Z,78.50
2018-02-03T07:35:34.763Z,77.80
2018-02-03T07:38:02.873Z,77.90
2018-02-03T07:40:30.963Z,78.00
2018-02-03T07:42:59.219Z,78.00
2018-02-03T07:45:27.449Z,78.00
2018-02-03T07:47:55.721Z,77.80
2018-02-03T07:50:23.835Z,77.90
2018-02-03T07:52:51.927Z,77.80
2018-02-03T07:55:20.042Z,77.60
2018-02-03T07:57:48.140Z,77.70
2018-02-03T08:00:16.228Z,77.40
2018-02-03T08:02:44.316Z,77.20
2018-02-03T08:05:12.425Z,77.20
2018-02-03T08:07:40.536Z,77.30
2018-02-03T08:10:08.652Z,77.40
2018-02-03T08:12:36.752Z,77.20
2018-02-03T08:15:04.847Z,77.20
2018-02-03T08:17:32.942Z,77.10
2018-02-03T08:20:01.602Z,77.10
2018-02-03T08:22:30.348Z,77.00
2018-02-03T08:24:59.216Z,76.20
2018-02-03T08:27:27.360Z,76.20
2018-02-03T08:29:55.466Z,76.20
2018-02-03T08:32:23.690Z,76.30
2018-02-03T08:34:51.784Z,76.50
2018-02-03T08:37:19.873Z,76.60
2018-02-03T08:39:48.413Z,76.60
2018-02-03T08:42:16.711Z,76.60
2018-02-03T08:44:44.803Z,76.20
2018-02-03T08:47:13.667Z,76.00
2018-02-03T08:49:41.873Z,75.80
2018-02-03T08:52:10.151Z,76.10
2018-02-03T08:54:39.039Z,76.40
2018-02-03T08:57:07.289Z,76.60
2018-02-03T08:59:35.419Z,76.90
2018-02-03T09:02:03.521Z,77.20
2018-02-03T09:04:31.615Z,77.20
2018-02-03T09:06:59.729Z,77.10
2018-02-03T09:09:28.169Z,77.40
2018-02-03T09:12:06.393Z,77.50
2018-02-03T09:14:34.515Z,77.60
2018-02-03T09:17:02.623Z,77.70
2018-02-03T09:19:30.764Z,77.70
2018-02-03T09:21:59.063Z,77.60
2018-02-03T09:24:27.206Z,77.90
2018-02-03T09:26:55.389Z,77.90
2018-02-03T09:29:23.606Z,78.00
2018-02-03T09:31:51.978Z,78.10
2018-02-03T09:34:20.100Z,78.20
2018-02-03T09:36:48.308Z,78.20
2018-02-03T09:39:18.008Z,78.20
2018-02-03T09:41:46.127Z,78.20
2018-02-03T09:44:14.236Z,78.40
2018-02-03T09:46:42.328Z,78.30
2018-02-03T09:49:10.544Z,78.30
2018-02-03T09:51:38.736Z,78.40
2018-02-03T09:54:07.000Z,78.30
2018-02-03T09:56:35.234Z,78.50
2018-02-03T09:59:03.500Z,78.70
2018-02-03T10:01:31.678Z,78.50
2018-02-03T10:03:59.766Z,78.60
2018-02-03T10:06:27.857Z,78.50
2018-02-03T10:08:55.956Z,78.30
2018-02-03T10:11:24.228Z,78.10
2018-02-03T10:13:52.341Z,78.00
2018-02-03T10:16:20.421Z,78.10
2018-02-03T10:18:48.543Z,78.10
2018-02-03T10:21:16.731Z,78.40
2018-02-03T10:23:44.869Z,77.80
2018-02-03T10:26:12.983Z,77.50
2018-02-03T10:28:41.655Z,77.60
2018-02-03T10:31:09.751Z,77.60
2018-02-03T10:33:38.005Z,77.80
2018-02-03T10:36:06.155Z,77.90
2018-02-03T10:38:34.259Z,77.70
2018-02-03T10:41:02.989Z,77.80
2018-02-03T10:43:31.091Z,77.90
2018-02-03T10:45:59.248Z,77.90
2018-02-03T10:48:27.447Z,77.90
2018-02-03T10:50:55.689Z,77.90
2018-02-03T10:53:23.908Z,77.80
2018-02-03T10:55:52.000Z,77.80
2018-02-03T10:58:20.097Z,77.80
2018-02-03T11:00:48.220Z,77.70
2018-02-03T11:03:16.320Z,77.60
2018-02-03T11:05:44.720Z,77.30
2018-02-03T11:08:13.664Z,77.20
2018-02-03T11:10:41.990Z,77.10
2018-02-03T11:13:10.176Z,77.20
2018-02-03T11:15:38.283Z,76.90
2018-02-03T11:18:06.368Z,77.40
2018-02-03T11:20:34.471Z,76.30
2018-02-03T11:23:02.553Z,76.10
2018-02-03T11:25:30.677Z,76.40
2018-02-03T11:27:58.755Z,76.20
2018-02-03T11:30:26.899Z,76.20
2018-02-03T11:32:54.987Z,76.30
2018-02-03T11:35:23.137Z,76.30
2018-02-03T11:37:51.247Z,76.30
2018-02-03T11:40:19.378Z,76.80
2018-02-03T11:42:48.261Z,76.70
2018-02-03T11:45:16.359Z,76.60
2018-02-03T11:47:44.490Z,76.40
2018-02-03T11:50:12.616Z,76.30
2018-02-03T11:52:40.726Z,76.50
2018-02-03T11:55:08.817Z,76.50
2018-02-03T11:57:37.027Z,76.50
2018-02-03T12:00:05.115Z,76.60
2018-02-03T12:02:33.511Z,76.60
2018-02-03T12:05:01.603Z,77.00
2018-02-03T12:07:29.700Z,76.80
2018-02-03T12:09:57.796Z,76.90
2018-02-03T12:12:26.020Z,77.00
2018-02-03T12:14:54.188Z,76.90
2018-02-03T12:17:22.386Z,77.10
2018-02-03T12:19:50.664Z,77.20
2018-02-03T12:22:18.892Z,76.60
2018-02-03T12:24:47.506Z,76.70
2018-02-03T12:27:15.613Z,76.50
2018-02-03T12:29:43.714Z,76.70
2018-02-03T12:32:11.871Z,77.10
2018-02-03T12:34:40.004Z,77.30
2018-02-03T12:37:08.988Z,77.30
2018-02-03T12:39:37.089Z,77.00
2018-02-03T12:42:05.170Z,77.00
2018-02-03T12:44:33.282Z,77.30
2018-02-03T12:47:01.368Z,77.20
2018-02-03T12:49:29.467Z,77.30
2018-02-03T12:51:58.442Z,77.10
2018-02-03T12:54:26.693Z,77.80
2018-02-03T12:56:54.791Z,76.60
2018-02-03T12:59:22.995Z,75.90
2018-02-03T13:01:51.100Z,76.10
2018-02-03T13:04:19.179Z,75.90
2018-02-03T13:06:47.285Z,76.30
2018-02-03T13:09:15.387Z,76.50
2018-02-03T13:11:43.483Z,76.80
2018-02-03T13:14:11.585Z,77.00
2018-02-03T13:16:39.683Z,77.30
2018-02-03T13:19:08.541Z,76.70
2018-02-03T13:21:36.663Z,76.70
2018-02-03T13:24:04.757Z,76.60
2018-02-03T13:26:32.874Z,76.80
2018-02-03T13:29:00.953Z,76.80
2018-02-03T13:31:29.059Z,76.00
2018-02-03T13:33:57.239Z,76.00
2018-02-03T13:36:25.326Z,75.80
2018-02-03T13:38:53.439Z,75.70
2018-02-03T13:41:21.532Z,75.80
2018-02-03T13:43:49.652Z,75.80
2018-02-03T13:46:17.836Z,75.80
2018-02-03T13:48:45.931Z,76.00
2018-02-03T13:51:14.013Z,76.10
2018-02-03T13:53:42.136Z,76.20
2018-02-03T13:56:10.364Z,76.30
2018-02-03T13:58:38.584Z,76.40
2018-02-03T14:01:07.818Z,76.40
2018-02-03T14:03:36.776Z,76.60
2018-02-03T14:06:05.052Z,76.40
2018-02-03T14:08:33.777Z,76.40
2018-02-03T14:11:01.863Z,76.80
2018-02-03T14:13:30.078Z,76.70
2018-02-03T14:15:58.253Z,77.00
2018-02-03T14:18:26.413Z,77.00
2018-02-03T14:20:54.511Z,76.80
2018-02-03T14:23:23.369Z,76.50
2018-02-03T14:25:57.069Z,76.40
2018-02-03T14:28:25.151Z,76.50
2018-02-03T14:30:53.300Z,75.90
2018-02-03T14:33:21.333Z,75.40
2018-02-03T14:35:49.441Z,75.30
2018-02-03T14:38:18.353Z,75.50
2018-02-03T14:40:46.489Z,75.40
2018-02-03T14:43:14.692Z,75.20
2018-02-03T14:45:44.172Z,75.20
2018-02-03T14:48:13.028Z,75.20
2018-02-03T14:50:41.156Z,75.50
2018-02-03T14:53:09.267Z,75.30
2018-02-03T14:55:37.462Z,75.10
2018-02-03T14:58:06.331Z,75.30
2018-02-03T15:00:35.136Z,75.30
2018-02-03T15:03:03.225Z,75.30
2018-02-03T15:05:31.316Z,75.30
2018-02-03T15:07:59.420Z,75.30
2018-02-03T15:10:27.528Z,75.20
2018-02-03T15:12:55.762Z,74.60
2018-02-03T15:15:24.298Z,74.60
2018-02-03T15:17:52.378Z,74.80
2018-02-03T15:20:20.700Z,74.70
2018-02-03T15:22:49.328Z,75.00
2018-02-03T15:25:17.482Z,75.10
2018-02-03T15:27:45.592Z,75.30
2018-02-03T15:30:13.687Z,75.20
2018-02-03T15:32:41.772Z,75.30
2018-02-03T15:35:09.942Z,75.40
2018-02-03T15:37:38.159Z,75.70
2018-02-03T15:40:06.387Z,75.70
2018-02-03T15:42:34.546Z,75.70
2018-02-03T15:45:02.655Z,75.40
2018-02-03T15:47:30.757Z,75.40
2018-02-03T15:49:59.031Z,75.60
2018-02-03T15:52:27.163Z,75.70
2018-02-03T15:54:55.261Z,75.90
2018-02-03T15:57:24.107Z,75.90
2018-02-03T15:59:52.201Z,75.90
2018-02-03T16:02:20.503Z,75.70
2018-02-03T16:04:49.154Z,75.80
2018-02-03T16:07:17.788Z,75.50
2018-02-03T16:09:47.167Z,75.60
2018-02-03T16:12:16.015Z,75.50
2018-02-03T16:14:44.384Z,75.70
2018-02-03T16:17:13.427Z,75.90
2018-02-03T16:19:41.880Z,76.00
2018-02-03T16:22:10.124Z,76.20
2018-02-03T16:24:38.315Z,76.20
2018-02-03T16:27:07.405Z,76.20
2018-02-03T16:29:35.804Z,76.40
2018-02-03T16:32:04.131Z,76.50
2018-02-03T16:34:32.715Z,76.80
2018-02-03T16:37:01.729Z,76.90
2018-02-03T16:39:30.418Z,76.80
2018-02-03T16:41:58.734Z,76.90
2018-02-03T16:44:27.079Z,77.10
2018-02-03T16:46:55.424Z,76.90
2018-02-03T16:49:23.748Z,77.20
2018-02-03T16:51:52.192Z,77.40
2018-02-03T16:54:20.798Z,77.20
2018-02-03T16:56:49.065Z,77.20
2018-02-03T16:59:17.643Z,77.30
2018-02-03T17:01:46.391Z,77.20
2018-02-03T17:04:16.445Z,77.20
2018-02-03T17:06:45.025Z,77.10
2018-02-03T17:09:13.126Z,77.10
2018-02-03T17:11:41.227Z,76.80
2018-02-03T17:14:09.334Z,76.90
2018-02-03T17:16:37.409Z,76.80
2018-02-03T17:19:05.510Z,76.50
2018-02-03T17:21:33.613Z,76.60
2018-02-03T17:24:01.734Z,76.60
2018-02-03T17:26:29.841Z,76.50
2018-02-03T17:28:58.294Z,76.20
2018-02-03T17:31:26.447Z,76.80
2018-02-03T17:33:54.574Z,75.70
2018-02-03T17:36:28.248Z,75.50
2018-02-03T17:39:01.758Z,75.10
2018-02-03T17:41:29.942Z,75.10
2018-02-03T17:43:58.116Z,75.30
2018-02-03T17:46:31.646Z,75.50
2018-02-03T17:48:59.756Z,75.60
2018-02-03T17:51:27.882Z,75.90
2018-02-03T17:53:55.992Z,76.20
2018-02-03T17:56:29.596Z,76.40
2018-02-03T17:58:57.995Z,76.60
2018-02-03T18:01:26.226Z,76.70
2018-02-03T18:03:54.302Z,76.90
2018-02-03T18:06:22.410Z,77.10
2018-02-03T18:08:51.292Z,77.20
2018-02-03T18:11:19.402Z,77.20
2018-02-03T18:13:47.507Z,77.30
2018-02-03T18:16:15.601Z,77.40
2018-02-03T18:18:43.708Z,77.50
2018-02-03T18:21:11.826Z,77.50
2018-02-03T18:23:40.093Z,77.50
2018-02-03T18:26:08.216Z,77.60
2018-02-03T18:28:37.108Z,77.60
2018-02-03T18:31:05.179Z,77.60
2018-02-03T18:33:33.677Z,77.60
2018-02-03T18:36:01.805Z,77.70
2018-02-03T18:38:29.885Z,77.70
2018-02-03T18:40:57.982Z,77.90
2018-02-03T18:43:26.093Z,77.90
2018-02-03T18:45:54.198Z,77.90
2018-02-03T18:48:22.279Z,77.90
2018-02-03T18:50:51.184Z,78.00
2018-02-03T18:53:19.343Z,77.90
2018-02-03T18:55:47.463Z,77.90
2018-02-03T18:58:15.606Z,77.90
2018-02-03T19:00:43.693Z,78.00
2018-02-03T19:03:11.805Z,78.10
2018-02-03T19:05:39.899Z,78.10
2018-02-03T19:08:08.113Z,78.10
2018-02-03T19:10:36.212Z,78.20
2018-02-03T19:13:04.313Z,78.30
2018-02-03T19:15:32.412Z,78.30
2018-02-03T19:18:00.524Z,78.20
2018-02-03T19:20:28.658Z,78.20
2018-02-03T19:22:57.518Z,78.40
2018-02-03T19:25:25.596Z,78.40
2018-02-03T19:27:54.460Z,79.00
2018-02-03T19:30:22.668Z,78.30
2018-02-03T19:32:51.230Z,78.30
2018-02-03T19:35:19.368Z,78.20
2018-02-03T19:37:47.512Z,78.30
2018-02-03T19:40:15.721Z,78.40
2018-02-03T19:42:43.951Z,78.40
2018-02-03T19:45:12.792Z,78.40
2018-02-03T19:47:40.950Z,78.40
2018-02-03T19:50:09.077Z,78.40
2018-02-03T19:52:37.161Z,78.40
2018-02-03T19:55:05.273Z,78.40
2018-02-03T19:57:33.411Z,78.40
2018-02-03T20:00:01.559Z,78.50
2018-02-03T20:02:29.640Z,78.60
2018-02-03T20:04:58.345Z,78.60
2018-02-03T20:07:26.893Z,78.60
2018-02-03T20:09:55.011Z,78.60
2018-02-03T20:12:23.105Z,78.50
2018-02-03T20:14:51.226Z,78.60
2018-02-03T20:17:19.369Z,78.60
2018-02-03T20:19:47.719Z,78.60
2018-02-03T20:22:15.808Z,78.50
2018-02-03T20:24:43.900Z,78.60
2018-02-03T20:27:12.036Z,78.60
2018-02-03T20:29:40.162Z,78.60
2018-02-03T20:32:08.291Z,78.60
2018-02-03T20:34:36.394Z,78.70
2018-02-03T20:37:04.530Z,78.70
2018-02-03T20:39:32.738Z,78.70
2018-02-03T20:42:00.924Z,78.70
2018-02-03T20:44:29.111Z,78.70
2018-02-03T20:46:57.284Z,79.40
2018-02-03T20:49:25.372Z,78.70
2018-02-03T20:51:53.480Z,78.70
2018-02-03T20:54:21.560Z,78.70
2018-02-03T20:56:49.688Z,78.70
2018-02-03T20:59:17.796Z,78.80
2018-02-03T21:01:45.884Z,78.80
2018-02-03T21:04:14.019Z,78.80
2018-02-03T21:06:42.125Z,78.80
2018-02-03T21:09:10.231Z,78.80
2018-02-03T21:11:38.323Z,78.80
2018-02-03T21:14:06.443Z,78.80
2018-02-03T21:16:34.539Z,78.80
2018-02-03T21:19:02.649Z,78.80
2018-02-03T21:21:30.725Z,78.80
2018-02-03T21:23:58.885Z,78.80
2018-02-03T21:26:26.969Z,78.80
2018-02-03T21:28:55.069Z,78.90
2018-02-03T21:31:23.155Z,79.00
2018-02-03T21:33:51.285Z,79.00
2018-02-03T21:36:19.585Z,79.00
2018-02-03T21:38:47.680Z,79.00
2018-02-03T21:41:15.893Z,79.10
2018-02-03T21:43:44.039Z,79.00
2018-02-03T21:46:12.137Z,79.00
2018-02-03T21:48:40.790Z,79.00
2018-02-03T21:51:08.889Z,79.10
2018-02-03T21:53:37.109Z,79.10
2018-02-03T21:56:05.234Z,79.10
2018-02-03T21:58:33.541Z,79.00
2018-02-03T22:01:01.652Z,79.10
2018-02-03T22:03:29.822Z,79.10
2018-02-03T22:05:57.906Z,79.20
2018-02-03T22:08:26.008Z,79.20
2018-02-03T22:10:54.176Z,79.20
2018-02-03T22:13:22.278Z,79.10
2018-02-03T22:15:50.515Z,79.30
2018-02-03T22:18:19.476Z,79.30
2018-02-03T22:20:47.566Z,79.30
2018-02-03T22:23:15.667Z,79.30
2018-02-03T22:25:43.750Z,79.30
2018-02-03T22:28:11.828Z,79.30
2018-02-03T22:30:39.947Z,79.30
2018-02-03T22:33:08.055Z,79.30
2018-02-03T22:35:36.177Z,79.40
2018-02-03T22:38:04.341Z,79.40
2018-02-03T22:40:32.433Z,79.50
2018-02-03T22:43:00.517Z,79.50
2018-02-03T22:45:28.643Z,79.40
2018-02-03T22:47:56.715Z,79.40
2018-02-03T22:50:24.865Z,79.40
2018-02-03T22:52:53.079Z,79.50
2018-02-03T22:55:21.935Z,79.60
2018-02-03T22:57:50.041Z,79.60
2018-02-03T23:00:18.127Z,79.50
2018-02-03T23:02:51.735Z,79.50
2018-02-03T23:05:19.827Z,79.50
2018-02-03T23:07:47.913Z,79.50
2018-02-03T23:10:15.997Z,79.40
2018-02-03T23:12:44.140Z,79.40
2018-02-03T23:15:13.056Z,79.20
2018-02-03T23:17:41.169Z,79.20
2018-02-03T23:20:09.262Z,79.30
2018-02-03T23:22:37.372Z,79.20
2018-02-03T23:25:05.483Z,79.20
2018-02-03T23:27:33.592Z,79.30
2018-02-03T23:30:02.473Z,79.30
2018-02-03T23:32:30.562Z,79.30
2018-02-03T23:34:58.748Z,79.30
2018-02-03T23:37:26.842Z,79.30
2018-02-03T23:39:54.946Z,79.40
2018-02-03T23:42:23.074Z,79.40
2018-02-03T23:44:51.136Z,79.50
2018-02-03T23:47:19.297Z,80.60
2018-02-03T23:49:47.402Z,79.40
2018-02-03T23:52:15.493Z,79.30
2018-02-03T23:54:44.220Z,79.30
2018-02-03T23:57:12.406Z,79.60
2018-02-03T23:59:40.681Z,79.40
